sensor_id;sensor_type;location;lat;lon;timestamp;P1;durP1;ratioP1;P2;durP2;ratioP2
71773;SDS011;59607;52.130;5.430;2023-11-21T00:00:55;9.40;;;5.97;;
71773;SDS011;59607;52.130;5.430;2023-11-21T00:03:24;6.90;;;5.47;;
71773;SDS011;59607;52.130;5.430;2023-11-21T00:05:54;8.63;;;4.90;;
71773;SDS011;59607;52.130;5.430;2023-11-21T00:08:20;8.30;;;4.68;;
71773;SDS011;59607;52.130;5.430;2023-11-21T00:10:50;9.05;;;5.30;;
71773;SDS011;59607;52.130;5.430;2023-11-21T00:13:24;6.90;;;4.70;;
71773;SDS011;59607;52.130;5.430;2023-11-21T00:16:05;13.63;;;5.00;;
71773;SDS011;59607;52.130;5.430;2023-11-21T00:18:39;7.55;;;4.88;;
71773;SDS011;59607;52.130;5.430;2023-11-21T00:21:05;7.93;;;5.25;;
71773;SDS011;59607;52.130;5.430;2023-11-21T00:23:33;8.20;;;5.40;;
71773;SDS011;59607;52.130;5.430;2023-11-21T00:26:02;10.90;;;6.03;;
71773;SDS011;59607;52.130;5.430;2023-11-21T00:28:30;8.63;;;5.60;;
71773;SDS011;59607;52.130;5.430;2023-11-21T00:31:00;11.80;;;5.65;;
71773;SDS011;59607;52.130;5.430;2023-11-21T00:33:29;10.85;;;5.68;;
71773;SDS011;59607;52.130;5.430;2023-11-21T00:35:56;8.90;;;5.80;;
71773;SDS011;59607;52.130;5.430;2023-11-21T00:38:25;17.77;;;6.17;;
71773;SDS011;59607;52.130;5.430;2023-11-21T00:40:55;12.60;;;5.75;;
71773;SDS011;59607;52.130;5.430;2023-11-21T00:43:28;20.95;;;7.10;;
71773;SDS011;59607;52.130;5.430;2023-11-21T00:45:57;29.38;;;6.47;;
71773;SDS011;59607;52.130;5.430;2023-11-21T00:48:23;19.77;;;7.30;;
71773;SDS011;59607;52.130;5.430;2023-11-21T00:50:53;9.83;;;5.53;;
71773;SDS011;59607;52.130;5.430;2023-11-21T00:53:23;12.55;;;5.78;;
71773;SDS011;59607;52.130;5.430;2023-11-21T00:55:49;11.40;;;6.18;;
71773;SDS011;59607;52.130;5.430;2023-11-21T00:58:20;9.38;;;5.50;;
71773;SDS011;59607;52.130;5.430;2023-11-21T01:00:47;9.35;;;5.10;;
71773;SDS011;59607;52.130;5.430;2023-11-21T01:03:17;6.03;;;4.77;;
71773;SDS011;59607;52.130;5.430;2023-11-21T01:05:44;7.93;;;4.55;;
71773;SDS011;59607;52.130;5.430;2023-11-21T01:08:11;7.65;;;4.75;;
71773;SDS011;59607;52.130;5.430;2023-11-21T01:10:41;6.80;;;4.80;;
71773;SDS011;59607;52.130;5.430;2023-11-21T01:13:08;4.90;;;4.25;;
71773;SDS011;59607;52.130;5.430;2023-11-21T01:15:34;7.13;;;4.67;;
71773;SDS011;59607;52.130;5.430;2023-11-21T01:18:00;4.97;;;4.40;;
71773;SDS011;59607;52.130;5.430;2023-11-21T01:20:43;8.00;;;4.28;;
71773;SDS011;59607;52.130;5.430;2023-11-21T01:23:16;6.10;;;4.53;;
71773;SDS011;59607;52.130;5.430;2023-11-21T01:25:44;8.10;;;5.03;;
71773;SDS011;59607;52.130;5.430;2023-11-21T01:28:17;6.50;;;5.50;;
71773;SDS011;59607;52.130;5.430;2023-11-21T01:30:44;6.38;;;5.03;;
71773;SDS011;59607;52.130;5.430;2023-11-21T01:33:14;5.28;;;4.47;;
71773;SDS011;59607;52.130;5.430;2023-11-21T01:35:44;5.40;;;4.90;;
71773;SDS011;59607;52.130;5.430;2023-11-21T01:38:12;6.18;;;4.63;;
71773;SDS011;59607;52.130;5.430;2023-11-21T01:40:43;6.23;;;3.90;;
71773;SDS011;59607;52.130;5.430;2023-11-21T01:43:10;5.25;;;4.63;;
71773;SDS011;59607;52.130;5.430;2023-11-21T01:45:42;5.97;;;4.00;;
71773;SDS011;59607;52.130;5.430;2023-11-21T01:48:12;8.07;;;5.25;;
71773;SDS011;59607;52.130;5.430;2023-11-21T01:50:40;6.28;;;4.65;;
71773;SDS011;59607;52.130;5.430;2023-11-21T01:53:13;4.33;;;3.93;;
71773;SDS011;59607;52.130;5.430;2023-11-21T01:55:40;4.53;;;3.70;;
71773;SDS011;59607;52.130;5.430;2023-11-21T01:58:14;4.82;;;3.95;;
71773;SDS011;59607;52.130;5.430;2023-11-21T02:00:45;4.63;;;3.85;;
71773;SDS011;59607;52.130;5.430;2023-11-21T02:03:15;5.07;;;3.50;;
71773;SDS011;59607;52.130;5.430;2023-11-21T02:05:42;4.67;;;3.77;;
71773;SDS011;59607;52.130;5.430;2023-11-21T02:08:12;5.97;;;3.83;;
71773;SDS011;59607;52.130;5.430;2023-11-21T02:10:44;4.90;;;4.22;;
71773;SDS011;59607;52.130;5.430;2023-11-21T02:13:10;4.55;;;4.15;;
71773;SDS011;59607;52.130;5.430;2023-11-21T02:15:42;5.85;;;3.90;;
71773;SDS011;59607;52.130;5.430;2023-11-21T02:18:09;5.90;;;4.27;;
71773;SDS011;59607;52.130;5.430;2023-11-21T02:21:00;5.53;;;4.30;;
71773;SDS011;59607;52.130;5.430;2023-11-21T02:23:30;6.68;;;4.85;;
71773;SDS011;59607;52.130;5.430;2023-11-21T02:25:57;4.40;;;4.00;;
71773;SDS011;59607;52.130;5.430;2023-11-21T02:28:28;7.00;;;5.15;;
71773;SDS011;59607;52.130;5.430;2023-11-21T02:30:55;7.93;;;4.13;;
71773;SDS011;59607;52.130;5.430;2023-11-21T02:33:27;5.35;;;4.18;;
71773;SDS011;59607;52.130;5.430;2023-11-21T02:35:57;4.82;;;4.00;;
71773;SDS011;59607;52.130;5.430;2023-11-21T02:38:23;5.13;;;4.15;;
71773;SDS011;59607;52.130;5.430;2023-11-21T02:40:56;6.43;;;4.32;;
71773;SDS011;59607;52.130;5.430;2023-11-21T02:43:24;4.10;;;3.40;;
71773;SDS011;59607;52.130;5.430;2023-11-21T02:46:05;5.10;;;3.58;;
71773;SDS011;59607;52.130;5.430;2023-11-21T02:48:46;6.03;;;3.75;;
71773;SDS011;59607;52.130;5.430;2023-11-21T02:51:15;7.90;;;3.90;;
71773;SDS011;59607;52.130;5.430;2023-11-21T02:53:42;7.32;;;3.97;;
71773;SDS011;59607;52.130;5.430;2023-11-21T02:56:08;8.93;;;3.73;;
71773;SDS011;59607;52.130;5.430;2023-11-21T02:58:34;6.00;;;4.15;;
71773;SDS011;59607;52.130;5.430;2023-11-21T03:01:01;4.85;;;4.10;;
71773;SDS011;59607;52.130;5.430;2023-11-21T03:03:30;4.93;;;3.88;;
71773;SDS011;59607;52.130;5.430;2023-11-21T03:05:57;5.68;;;4.43;;
71773;SDS011;59607;52.130;5.430;2023-11-21T03:08:28;6.80;;;3.47;;
71773;SDS011;59607;52.130;5.430;2023-11-21T03:10:55;4.95;;;3.97;;
71773;SDS011;59607;52.130;5.430;2023-11-21T03:13:22;6.60;;;4.35;;
71773;SDS011;59607;52.130;5.430;2023-11-21T03:15:54;5.55;;;3.83;;
71773;SDS011;59607;52.130;5.430;2023-11-21T03:18:21;7.57;;;4.30;;
71773;SDS011;59607;52.130;5.430;2023-11-21T03:21:06;7.40;;;4.20;;
71773;SDS011;59607;52.130;5.430;2023-11-21T03:23:45;7.10;;;3.97;;
71773;SDS011;59607;52.130;5.430;2023-11-21T03:26:15;6.60;;;3.63;;
71773;SDS011;59607;52.130;5.430;2023-11-21T03:28:45;5.90;;;3.80;;
71773;SDS011;59607;52.130;5.430;2023-11-21T03:31:15;9.60;;;4.05;;
71773;SDS011;59607;52.130;5.430;2023-11-21T03:33:45;4.87;;;3.60;;
71773;SDS011;59607;52.130;5.430;2023-11-21T03:36:13;8.00;;;4.10;;
71773;SDS011;59607;52.130;5.430;2023-11-21T03:38:48;8.13;;;3.78;;
71773;SDS011;59607;52.130;5.430;2023-11-21T03:41:21;7.82;;;4.18;;
71773;SDS011;59607;52.130;5.430;2023-11-21T03:43:47;7.95;;;4.38;;
71773;SDS011;59607;52.130;5.430;2023-11-21T03:46:14;6.13;;;3.93;;
71773;SDS011;59607;52.130;5.430;2023-11-21T03:48:40;7.97;;;3.90;;
71773;SDS011;59607;52.130;5.430;2023-11-21T03:51:13;8.52;;;4.05;;
71773;SDS011;59607;52.130;5.430;2023-11-21T03:53:43;6.80;;;4.30;;
71773;SDS011;59607;52.130;5.430;2023-11-21T03:56:15;10.00;;;4.15;;
71773;SDS011;59607;52.130;5.430;2023-11-21T03:58:42;6.20;;;4.00;;
71773;SDS011;59607;52.130;5.430;2023-11-21T04:01:12;6.22;;;3.95;;
71773;SDS011;59607;52.130;5.430;2023-11-21T04:03:44;7.50;;;4.13;;
71773;SDS011;59607;52.130;5.430;2023-11-21T04:06:14;9.05;;;4.00;;
71773;SDS011;59607;52.130;5.430;2023-11-21T04:08:41;7.88;;;4.10;;
71773;SDS011;59607;52.130;5.430;2023-11-21T04:11:07;8.80;;;4.07;;
71773;SDS011;59607;52.130;5.430;2023-11-21T04:13:37;10.32;;;4.75;;
71773;SDS011;59607;52.130;5.430;2023-11-21T04:16:05;7.28;;;4.57;;
71773;SDS011;59607;52.130;5.430;2023-11-21T04:18:35;8.90;;;4.50;;
71773;SDS011;59607;52.130;5.430;2023-11-21T04:21:11;10.30;;;4.43;;
71773;SDS011;59607;52.130;5.430;2023-11-21T04:23:38;6.93;;;4.60;;
71773;SDS011;59607;52.130;5.430;2023-11-21T04:26:11;10.23;;;4.75;;
71773;SDS011;59607;52.130;5.430;2023-11-21T04:28:37;7.10;;;4.20;;
71773;SDS011;59607;52.130;5.430;2023-11-21T04:31:09;6.95;;;4.78;;
71773;SDS011;59607;52.130;5.430;2023-11-21T04:33:40;6.90;;;4.45;;
71773;SDS011;59607;52.130;5.430;2023-11-21T04:36:12;8.00;;;4.63;;
71773;SDS011;59607;52.130;5.430;2023-11-21T04:38:41;8.73;;;4.80;;
71773;SDS011;59607;52.130;5.430;2023-11-21T04:41:10;11.38;;;4.55;;
71773;SDS011;59607;52.130;5.430;2023-11-21T04:43:39;10.80;;;5.00;;
71773;SDS011;59607;52.130;5.430;2023-11-21T04:46:06;9.30;;;4.72;;
71773;SDS011;59607;52.130;5.430;2023-11-21T04:48:36;7.27;;;4.60;;
71773;SDS011;59607;52.130;5.430;2023-11-21T04:51:03;10.63;;;4.85;;
71773;SDS011;59607;52.130;5.430;2023-11-21T04:53:30;8.57;;;5.20;;
71773;SDS011;59607;52.130;5.430;2023-11-21T04:56:00;6.82;;;4.43;;
71773;SDS011;59607;52.130;5.430;2023-11-21T04:58:32;9.15;;;4.93;;
71773;SDS011;59607;52.130;5.430;2023-11-21T05:01:08;7.13;;;5.23;;
71773;SDS011;59607;52.130;5.430;2023-11-21T05:03:35;9.20;;;4.60;;
71773;SDS011;59607;52.130;5.430;2023-11-21T05:06:05;8.13;;;4.97;;
71773;SDS011;59607;52.130;5.430;2023-11-21T05:08:32;7.65;;;5.15;;
71773;SDS011;59607;52.130;5.430;2023-11-21T05:10:59;16.85;;;5.38;;
71773;SDS011;59607;52.130;5.430;2023-11-21T05:13:29;7.60;;;4.90;;
71773;SDS011;59607;52.130;5.430;2023-11-21T05:15:56;7.53;;;5.10;;
71773;SDS011;59607;52.130;5.430;2023-11-21T05:18:23;16.25;;;5.60;;
71773;SDS011;59607;52.130;5.430;2023-11-21T05:20:59;7.45;;;4.18;;
71773;SDS011;59607;52.130;5.430;2023-11-21T05:23:27;13.32;;;5.18;;
71773;SDS011;59607;52.130;5.430;2023-11-21T05:25:56;9.93;;;4.80;;
71773;SDS011;59607;52.130;5.430;2023-11-21T05:28:23;11.50;;;4.68;;
71773;SDS011;59607;52.130;5.430;2023-11-21T05:30:49;9.18;;;5.40;;
71773;SDS011;59607;52.130;5.430;2023-11-21T05:33:26;8.65;;;4.85;;
71773;SDS011;59607;52.130;5.430;2023-11-21T05:35:52;10.35;;;5.20;;
71773;SDS011;59607;52.130;5.430;2023-11-21T05:38:19;13.10;;;5.10;;
71773;SDS011;59607;52.130;5.430;2023-11-21T05:40:51;9.00;;;5.30;;
71773;SDS011;59607;52.130;5.430;2023-11-21T05:43:17;14.20;;;5.32;;
71773;SDS011;59607;52.130;5.430;2023-11-21T05:45:51;8.77;;;5.40;;
71773;SDS011;59607;52.130;5.430;2023-11-21T05:48:18;9.68;;;4.97;;
71773;SDS011;59607;52.130;5.430;2023-11-21T05:50:47;9.87;;;5.20;;
71773;SDS011;59607;52.130;5.430;2023-11-21T05:53:15;9.30;;;5.18;;
71773;SDS011;59607;52.130;5.430;2023-11-21T05:55:42;8.50;;;4.57;;
71773;SDS011;59607;52.130;5.430;2023-11-21T05:58:13;9.85;;;5.28;;
71773;SDS011;59607;52.130;5.430;2023-11-21T06:00:40;14.20;;;5.32;;
71773;SDS011;59607;52.130;5.430;2023-11-21T06:03:06;11.33;;;5.37;;
71773;SDS011;59607;52.130;5.430;2023-11-21T06:05:42;9.82;;;5.05;;
71773;SDS011;59607;52.130;5.430;2023-11-21T06:08:09;14.68;;;6.10;;
71773;SDS011;59607;52.130;5.430;2023-11-21T06:10:37;6.80;;;4.68;;
71773;SDS011;59607;52.130;5.430;2023-11-21T06:13:06;12.23;;;5.78;;
71773;SDS011;59607;52.130;5.430;2023-11-21T06:15:34;9.03;;;5.33;;
71773;SDS011;59607;52.130;5.430;2023-11-21T06:18:03;12.35;;;5.60;;
71773;SDS011;59607;52.130;5.430;2023-11-21T06:20:30;10.60;;;5.35;;
71773;SDS011;59607;52.130;5.430;2023-11-21T06:22:56;15.57;;;5.45;;
71773;SDS011;59607;52.130;5.430;2023-11-21T06:25:29;9.60;;;5.13;;
71773;SDS011;59607;52.130;5.430;2023-11-21T06:27:59;11.10;;;5.17;;
71773;SDS011;59607;52.130;5.430;2023-11-21T06:30:28;9.45;;;5.20;;
71773;SDS011;59607;52.130;5.430;2023-11-21T06:33:00;11.85;;;5.30;;
71773;SDS011;59607;52.130;5.430;2023-11-21T06:35:27;11.02;;;5.15;;
71773;SDS011;59607;52.130;5.430;2023-11-21T06:38:01;10.77;;;5.80;;
71773;SDS011;59607;52.130;5.430;2023-11-21T06:40:29;8.50;;;4.97;;
71773;SDS011;59607;52.130;5.430;2023-11-21T06:43:02;9.30;;;5.93;;
71773;SDS011;59607;52.130;5.430;2023-11-21T06:45:29;10.43;;;4.78;;
71773;SDS011;59607;52.130;5.430;2023-11-21T06:47:58;9.13;;;5.00;;
71773;SDS011;59607;52.130;5.430;2023-11-21T06:50:28;9.70;;;5.10;;
71773;SDS011;59607;52.130;5.430;2023-11-21T06:52:54;8.23;;;4.93;;
71773;SDS011;59607;52.130;5.430;2023-11-21T06:55:21;11.35;;;4.93;;
71773;SDS011;59607;52.130;5.430;2023-11-21T06:57:50;9.80;;;5.45;;
71773;SDS011;59607;52.130;5.430;2023-11-21T07:00:18;8.57;;;5.07;;
71773;SDS011;59607;52.130;5.430;2023-11-21T07:02:48;6.15;;;4.65;;
71773;SDS011;59607;52.130;5.430;2023-11-21T07:05:22;13.63;;;4.87;;
71773;SDS011;59607;52.130;5.430;2023-11-21T07:08:02;8.20;;;4.13;;
71773;SDS011;59607;52.130;5.430;2023-11-21T07:10:33;6.32;;;4.00;;
71773;SDS011;59607;52.130;5.430;2023-11-21T07:13:04;6.32;;;4.28;;
71773;SDS011;59607;52.130;5.430;2023-11-21T07:15:34;7.40;;;4.05;;
71773;SDS011;59607;52.130;5.430;2023-11-21T07:18:00;7.33;;;4.47;;
71773;SDS011;59607;52.130;5.430;2023-11-21T07:20:27;7.53;;;4.43;;
71773;SDS011;59607;52.130;5.430;2023-11-21T07:22:54;5.00;;;4.20;;
71773;SDS011;59607;52.130;5.430;2023-11-21T07:25:29;8.25;;;4.40;;
71773;SDS011;59607;52.130;5.430;2023-11-21T07:27:55;10.32;;;4.60;;
71773;SDS011;59607;52.130;5.430;2023-11-21T07:30:36;6.00;;;3.80;;
71773;SDS011;59607;52.130;5.430;2023-11-21T07:33:09;11.32;;;4.57;;
71773;SDS011;59607;52.130;5.430;2023-11-21T07:35:36;9.68;;;4.20;;
71773;SDS011;59607;52.130;5.430;2023-11-21T07:38:05;7.78;;;4.38;;
71773;SDS011;59607;52.130;5.430;2023-11-21T07:40:33;6.55;;;3.65;;
71773;SDS011;59607;52.130;5.430;2023-11-21T07:42:59;8.90;;;4.00;;
71773;SDS011;59607;52.130;5.430;2023-11-21T07:45:26;5.80;;;4.28;;
71773;SDS011;59607;52.130;5.430;2023-11-21T07:48:21;6.85;;;4.20;;
71773;SDS011;59607;52.130;5.430;2023-11-21T07:50:47;5.88;;;3.97;;
71773;SDS011;59607;52.130;5.430;2023-11-21T07:53:14;4.97;;;3.70;;
71773;SDS011;59607;52.130;5.430;2023-11-21T07:55:40;10.20;;;3.70;;
71773;SDS011;59607;52.130;5.430;2023-11-21T07:58:07;12.88;;;4.03;;
71773;SDS011;59607;52.130;5.430;2023-11-21T08:00:33;9.45;;;3.92;;
71773;SDS011;59607;52.130;5.430;2023-11-21T08:03:06;4.88;;;3.00;;
71773;SDS011;59607;52.130;5.430;2023-11-21T08:05:33;8.13;;;3.20;;
71773;SDS011;59607;52.130;5.430;2023-11-21T08:08:08;7.13;;;3.10;;
71773;SDS011;59607;52.130;5.430;2023-11-21T08:10:34;10.00;;;3.53;;
71773;SDS011;59607;52.130;5.430;2023-11-21T08:13:25;9.10;;;3.40;;
71773;SDS011;59607;52.130;5.430;2023-11-21T08:15:57;7.30;;;3.45;;
71773;SDS011;59607;52.130;5.430;2023-11-21T08:18:35;8.38;;;3.55;;
71773;SDS011;59607;52.130;5.430;2023-11-21T08:21:01;7.13;;;3.40;;
71773;SDS011;59607;52.130;5.430;2023-11-21T08:23:51;9.15;;;3.13;;
71773;SDS011;59607;52.130;5.430;2023-11-21T08:26:23;9.45;;;3.22;;
71773;SDS011;59607;52.130;5.430;2023-11-21T08:29:00;5.75;;;3.22;;
71773;SDS011;59607;52.130;5.430;2023-11-21T08:31:27;5.57;;;3.42;;
71773;SDS011;59607;52.130;5.430;2023-11-21T08:34:01;6.87;;;3.50;;
71773;SDS011;59607;52.130;5.430;2023-11-21T08:36:29;6.93;;;2.60;;
71773;SDS011;59607;52.130;5.430;2023-11-21T08:39:00;10.68;;;2.95;;
71773;SDS011;59607;52.130;5.430;2023-11-21T08:41:30;5.40;;;2.58;;
71773;SDS011;59607;52.130;5.430;2023-11-21T08:44:07;5.93;;;3.00;;
71773;SDS011;59607;52.130;5.430;2023-11-21T08:46:34;5.93;;;2.90;;
71773;SDS011;59607;52.130;5.430;2023-11-21T08:49:03;5.97;;;3.05;;
71773;SDS011;59607;52.130;5.430;2023-11-21T08:51:34;6.22;;;3.28;;
71773;SDS011;59607;52.130;5.430;2023-11-21T08:54:00;4.43;;;2.90;;
71773;SDS011;59607;52.130;5.430;2023-11-21T08:56:37;5.50;;;3.55;;
71773;SDS011;59607;52.130;5.430;2023-11-21T08:59:07;4.93;;;3.33;;
71773;SDS011;59607;52.130;5.430;2023-11-21T09:01:41;5.95;;;3.80;;
71773;SDS011;59607;52.130;5.430;2023-11-21T09:04:13;7.30;;;3.63;;
71773;SDS011;59607;52.130;5.430;2023-11-21T09:06:42;8.77;;;4.63;;
71773;SDS011;59607;52.130;5.430;2023-11-21T09:09:08;5.13;;;4.32;;
71773;SDS011;59607;52.130;5.430;2023-11-21T09:11:41;6.73;;;4.60;;
71773;SDS011;59607;52.130;5.430;2023-11-21T09:14:07;7.65;;;5.60;;
71773;SDS011;59607;52.130;5.430;2023-11-21T09:16:35;7.35;;;5.78;;
71773;SDS011;59607;52.130;5.430;2023-11-21T09:19:07;6.90;;;6.15;;
71773;SDS011;59607;52.130;5.430;2023-11-21T09:21:33;10.30;;;6.25;;
71773;SDS011;59607;52.130;5.430;2023-11-21T09:24:03;8.27;;;5.63;;
71773;SDS011;59607;52.130;5.430;2023-11-21T09:26:37;7.68;;;5.40;;
71773;SDS011;59607;52.130;5.430;2023-11-21T09:29:06;8.18;;;6.32;;
71773;SDS011;59607;52.130;5.430;2023-11-21T09:31:36;9.90;;;6.30;;
71773;SDS011;59607;52.130;5.430;2023-11-21T09:34:02;11.50;;;6.13;;
71773;SDS011;59607;52.130;5.430;2023-11-21T09:36:36;7.67;;;6.00;;
71773;SDS011;59607;52.130;5.430;2023-11-21T09:39:11;9.95;;;5.65;;
71773;SDS011;59607;52.130;5.430;2023-11-21T09:41:57;9.35;;;6.05;;
71773;SDS011;59607;52.130;5.430;2023-11-21T09:44:48;12.30;;;6.68;;
71773;SDS011;59607;52.130;5.430;2023-11-21T09:47:30;7.97;;;5.80;;
71773;SDS011;59607;52.130;5.430;2023-11-21T09:50:24;7.77;;;6.03;;
71773;SDS011;59607;52.130;5.430;2023-11-21T09:55:37;9.30;;;6.00;;
71773;SDS011;59607;52.130;5.430;2023-11-21T09:58:10;10.63;;;6.10;;
71773;SDS011;59607;52.130;5.430;2023-11-21T10:00:53;8.15;;;5.88;;
71773;SDS011;59607;52.130;5.430;2023-11-21T10:03:30;12.40;;;5.70;;
71773;SDS011;59607;52.130;5.430;2023-11-21T10:05:57;9.30;;;5.10;;
71773;SDS011;59607;52.130;5.430;2023-11-21T10:08:31;8.43;;;5.60;;
71773;SDS011;59607;52.130;5.430;2023-11-21T10:11:17;9.27;;;5.68;;
71773;SDS011;59607;52.130;5.430;2023-11-21T10:13:55;9.45;;;5.18;;
71773;SDS011;59607;52.130;5.430;2023-11-21T10:16:25;9.67;;;5.53;;
71773;SDS011;59607;52.130;5.430;2023-11-21T10:18:56;9.45;;;5.25;;
71773;SDS011;59607;52.130;5.430;2023-11-21T10:21:39;5.82;;;4.75;;
71773;SDS011;59607;52.130;5.430;2023-11-21T10:24:06;6.97;;;5.15;;
71773;SDS011;59607;52.130;5.430;2023-11-21T10:26:36;8.07;;;5.13;;
71773;SDS011;59607;52.130;5.430;2023-11-21T10:29:18;4.87;;;3.67;;
71773;SDS011;59607;52.130;5.430;2023-11-21T10:31:51;5.57;;;3.65;;
71773;SDS011;59607;52.130;5.430;2023-11-21T10:34:55;4.13;;;3.67;;
71773;SDS011;59607;52.130;5.430;2023-11-21T10:37:28;6.55;;;4.28;;
71773;SDS011;59607;52.130;5.430;2023-11-21T10:40:01;5.85;;;3.97;;
71773;SDS011;59607;52.130;5.430;2023-11-21T10:42:34;4.53;;;4.03;;
71773;SDS011;59607;52.130;5.430;2023-11-21T10:45:01;6.78;;;4.82;;
71773;SDS011;59607;52.130;5.430;2023-11-21T10:47:32;5.07;;;4.00;;
71773;SDS011;59607;52.130;5.430;2023-11-21T10:50:00;5.60;;;3.95;;
71773;SDS011;59607;52.130;5.430;2023-11-21T10:52:30;5.97;;;4.75;;
71773;SDS011;59607;52.130;5.430;2023-11-21T10:55:00;6.93;;;4.30;;
71773;SDS011;59607;52.130;5.430;2023-11-21T10:57:37;5.32;;;3.60;;
71773;SDS011;59607;52.130;5.430;2023-11-21T11:00:05;5.22;;;3.78;;
71773;SDS011;59607;52.130;5.430;2023-11-21T11:02:48;6.35;;;3.90;;
71773;SDS011;59607;52.130;5.430;2023-11-21T11:05:23;5.47;;;3.70;;
71773;SDS011;59607;52.130;5.430;2023-11-21T11:07:58;5.43;;;4.03;;
71773;SDS011;59607;52.130;5.430;2023-11-21T11:10:30;8.13;;;4.57;;
71773;SDS011;59607;52.130;5.430;2023-11-21T11:13:00;5.20;;;4.32;;
71773;SDS011;59607;52.130;5.430;2023-11-21T11:15:31;5.20;;;4.18;;
71773;SDS011;59607;52.130;5.430;2023-11-21T11:18:03;6.07;;;4.35;;
71773;SDS011;59607;52.130;5.430;2023-11-21T11:20:36;6.60;;;5.00;;
71773;SDS011;59607;52.130;5.430;2023-11-21T11:28:42;4.35;;;3.72;;
71773;SDS011;59607;52.130;5.430;2023-11-21T11:34:12;5.93;;;4.50;;
71773;SDS011;59607;52.130;5.430;2023-11-21T11:37:02;6.05;;;4.57;;
71773;SDS011;59607;52.130;5.430;2023-11-21T11:39:37;8.05;;;5.07;;
71773;SDS011;59607;52.130;5.430;2023-11-21T11:42:14;5.28;;;4.78;;
71773;SDS011;59607;52.130;5.430;2023-11-21T11:47:32;5.97;;;4.97;;
71773;SDS011;59607;52.130;5.430;2023-11-21T11:52:49;8.68;;;5.55;;
71773;SDS011;59607;52.130;5.430;2023-11-21T11:55:19;6.20;;;4.95;;
71773;SDS011;59607;52.130;5.430;2023-11-21T11:57:51;7.60;;;5.35;;
71773;SDS011;59607;52.130;5.430;2023-11-21T12:03:01;7.45;;;5.95;;
71773;SDS011;59607;52.130;5.430;2023-11-21T12:05:30;8.60;;;6.38;;
71773;SDS011;59607;52.130;5.430;2023-11-21T12:08:02;7.13;;;5.60;;
71773;SDS011;59607;52.130;5.430;2023-11-21T12:10:35;7.18;;;5.70;;
71773;SDS011;59607;52.130;5.430;2023-11-21T12:13:07;6.47;;;5.27;;
71773;SDS011;59607;52.130;5.430;2023-11-21T12:15:38;9.25;;;6.68;;
71773;SDS011;59607;52.130;5.430;2023-11-21T12:18:09;11.90;;;6.05;;
71773;SDS011;59607;52.130;5.430;2023-11-21T12:20:41;10.73;;;6.50;;
71773;SDS011;59607;52.130;5.430;2023-11-21T12:23:09;9.38;;;6.22;;
71773;SDS011;59607;52.130;5.430;2023-11-21T12:25:44;9.53;;;6.30;;
71773;SDS011;59607;52.130;5.430;2023-11-21T12:28:11;8.80;;;6.28;;
71773;SDS011;59607;52.130;5.430;2023-11-21T12:30:49;10.10;;;6.65;;
71773;SDS011;59607;52.130;5.430;2023-11-21T12:33:20;11.13;;;6.88;;
71773;SDS011;59607;52.130;5.430;2023-11-21T12:35:50;8.40;;;6.88;;
71773;SDS011;59607;52.130;5.430;2023-11-21T12:38:16;8.60;;;6.80;;
71773;SDS011;59607;52.130;5.430;2023-11-21T12:40:48;9.10;;;6.65;;
71773;SDS011;59607;52.130;5.430;2023-11-21T12:43:18;9.98;;;7.20;;
71773;SDS011;59607;52.130;5.430;2023-11-21T12:45:50;8.88;;;7.18;;
71773;SDS011;59607;52.130;5.430;2023-11-21T12:48:37;11.15;;;6.75;;
71773;SDS011;59607;52.130;5.430;2023-11-21T12:51:08;11.53;;;6.83;;
71773;SDS011;59607;52.130;5.430;2023-11-21T12:53:40;12.45;;;7.22;;
71773;SDS011;59607;52.130;5.430;2023-11-21T12:56:10;12.07;;;7.35;;
71773;SDS011;59607;52.130;5.430;2023-11-21T12:58:37;12.95;;;7.57;;
71773;SDS011;59607;52.130;5.430;2023-11-21T13:01:08;9.30;;;7.28;;
71773;SDS011;59607;52.130;5.430;2023-11-21T13:03:48;11.63;;;6.87;;
71773;SDS011;59607;52.130;5.430;2023-11-21T13:06:19;8.32;;;6.90;;
71773;SDS011;59607;52.130;5.430;2023-11-21T13:08:54;10.50;;;7.22;;
71773;SDS011;59607;52.130;5.430;2023-11-21T13:11:24;10.25;;;7.07;;
71773;SDS011;59607;52.130;5.430;2023-11-21T13:13:55;8.05;;;5.70;;
71773;SDS011;59607;52.130;5.430;2023-11-21T13:16:25;7.37;;;5.50;;
71773;SDS011;59607;52.130;5.430;2023-11-21T13:18:52;8.55;;;5.50;;
71773;SDS011;59607;52.130;5.430;2023-11-21T13:21:18;8.95;;;5.55;;
71773;SDS011;59607;52.130;5.430;2023-11-21T13:23:51;9.38;;;5.72;;
71773;SDS011;59607;52.130;5.430;2023-11-21T13:26:20;6.43;;;4.55;;
71773;SDS011;59607;52.130;5.430;2023-11-21T13:28:52;3.67;;;2.80;;
71773;SDS011;59607;52.130;5.430;2023-11-21T13:31:30;3.22;;;2.30;;
71773;SDS011;59607;52.130;5.430;2023-11-21T13:34:02;3.45;;;2.13;;
71773;SDS011;59607;52.130;5.430;2023-11-21T13:36:31;5.57;;;3.50;;
71773;SDS011;59607;52.130;5.430;2023-11-21T13:39:07;2.50;;;1.45;;
71773;SDS011;59607;52.130;5.430;2023-11-21T13:41:44;2.43;;;1.70;;
71773;SDS011;59607;52.130;5.430;2023-11-21T13:44:17;4.10;;;1.40;;
71773;SDS011;59607;52.130;5.430;2023-11-21T13:46:53;2.95;;;1.77;;
71773;SDS011;59607;52.130;5.430;2023-11-21T13:49:29;2.75;;;2.08;;
71773;SDS011;59607;52.130;5.430;2023-11-21T13:52:09;6.65;;;3.70;;
71773;SDS011;59607;52.130;5.430;2023-11-21T13:54:40;4.57;;;4.03;;
71773;SDS011;59607;52.130;5.430;2023-11-21T13:57:12;5.53;;;4.10;;
71773;SDS011;59607;52.130;5.430;2023-11-21T13:59:39;5.97;;;4.35;;
71773;SDS011;59607;52.130;5.430;2023-11-21T14:02:16;8.48;;;5.30;;
71773;SDS011;59607;52.130;5.430;2023-11-21T14:05:05;8.00;;;5.40;;
71773;SDS011;59607;52.130;5.430;2023-11-21T14:07:38;10.43;;;6.83;;
71773;SDS011;59607;52.130;5.430;2023-11-21T14:10:06;8.23;;;6.68;;
71773;SDS011;59607;52.130;5.430;2023-11-21T14:12:40;9.23;;;6.40;;
71773;SDS011;59607;52.130;5.430;2023-11-21T14:15:12;9.05;;;6.95;;
71773;SDS011;59607;52.130;5.430;2023-11-21T14:17:43;10.80;;;6.78;;
71773;SDS011;59607;52.130;5.430;2023-11-21T14:20:10;13.80;;;6.87;;
71773;SDS011;59607;52.130;5.430;2023-11-21T14:22:49;9.05;;;6.63;;
71773;SDS011;59607;52.130;5.430;2023-11-21T14:25:15;9.40;;;6.97;;
71773;SDS011;59607;52.130;5.430;2023-11-21T14:27:48;9.93;;;7.07;;
71773;SDS011;59607;52.130;5.430;2023-11-21T14:30:15;11.60;;;7.28;;
71773;SDS011;59607;52.130;5.430;2023-11-21T14:33:00;10.33;;;6.80;;
71773;SDS011;59607;52.130;5.430;2023-11-21T14:35:32;11.68;;;7.20;;
71773;SDS011;59607;52.130;5.430;2023-11-21T14:37:59;10.80;;;7.22;;
71773;SDS011;59607;52.130;5.430;2023-11-21T14:40:27;11.90;;;8.05;;
71773;SDS011;59607;52.130;5.430;2023-11-21T14:43:02;10.00;;;7.50;;
71773;SDS011;59607;52.130;5.430;2023-11-21T14:45:43;11.60;;;8.07;;
71773;SDS011;59607;52.130;5.430;2023-11-21T14:48:09;8.55;;;6.05;;
71773;SDS011;59607;52.130;5.430;2023-11-21T14:50:44;10.52;;;7.03;;
71773;SDS011;59607;52.130;5.430;2023-11-21T14:53:34;15.07;;;8.07;;
71773;SDS011;59607;52.130;5.430;2023-11-21T14:56:10;12.30;;;7.88;;
71773;SDS011;59607;52.130;5.430;2023-11-21T14:58:47;12.30;;;9.10;;
71773;SDS011;59607;52.130;5.430;2023-11-21T15:01:14;15.43;;;9.18;;
71773;SDS011;59607;52.130;5.430;2023-11-21T15:03:52;11.18;;;8.20;;
71773;SDS011;59607;52.130;5.430;2023-11-21T15:06:25;11.68;;;8.07;;
71773;SDS011;59607;52.130;5.430;2023-11-21T15:08:56;15.43;;;7.95;;
71773;SDS011;59607;52.130;5.430;2023-11-21T15:11:35;12.07;;;7.30;;
71773;SDS011;59607;52.130;5.430;2023-11-21T15:14:08;9.55;;;7.00;;
71773;SDS011;59607;52.130;5.430;2023-11-21T15:16:42;13.55;;;7.50;;
71773;SDS011;59607;52.130;5.430;2023-11-21T15:19:24;13.45;;;7.85;;
71773;SDS011;59607;52.130;5.430;2023-11-21T15:21:57;9.20;;;6.97;;
71773;SDS011;59607;52.130;5.430;2023-11-21T15:24:24;9.73;;;7.63;;
71773;SDS011;59607;52.130;5.430;2023-11-21T15:26:56;7.43;;;5.97;;
71773;SDS011;59607;52.130;5.430;2023-11-21T15:29:24;6.88;;;6.13;;